Time;durP1;ratioP1;P1;durP2;ratioP2;P2;SDS_P1;SDS_P2;PMS_P1;PMS_P2;Temp;Humidity;BMP_temperature;BMP_pressure;BME280_temperature;BME280_humidity;BME280_pressure;Samples;Min_cycle;Max_cycle;Signal;HPM_P1;HPM_P2
2022/09/12 00:01:56;;;;;;;3.33;1.08;;;16.20;99.90;;;15.50;100.00;100813.91;5274113;22;20343;-74
2022/09/12 00:04:00;;;;;;;2.20;0.70;;;16.20;99.90;;;15.41;100.00;100799.84;5274449;22;20055;-74
2022/09/12 00:06:31;;;;;;;2.17;0.63;;;16.10;99.90;;;15.54;100.00;100824.97;5248437;22;20362;-74
2022/09/12 00:08:32;;;;;;;3.17;0.70;;;16.10;99.90;;;15.37;100.00;100795.94;5259135;22;20056;-74
2022/09/12 00:10:36;;;;;;;2.60;0.80;;;16.10;99.90;;;15.50;100.00;100816.56;5302167;22;20006;-74
2022/09/12 00:12:37;;;;;;;1.98;0.80;;;16.10;99.90;;;15.35;100.00;100791.81;5302289;22;20342;-74
2022/09/12 00:14:38;;;;;;;2.90;0.93;;;16.10;99.90;;;15.30;100.00;100796.84;5274298;22;20002;-74
2022/09/12 00:16:40;;;;;;;5.03;0.80;;;16.00;99.90;;;15.32;100.00;100803.59;5301893;22;20002;-74
2022/09/12 00:18:41;;;;;;;4.43;1.42;;;16.00;99.90;;;15.33;100.00;100799.94;5274349;22;20006;-74
2022/09/12 00:20:45;;;;;;;2.97;0.70;;;16.00;99.90;;;15.40;100.00;100814.16;5274372;22;20013;-74
2022/09/12 00:22:46;;;;;;;;;;;16.00;99.90;;;15.24;100.00;100798.41;5275316;22;20063;-74
2022/09/12 00:24:46;;;;;;;3.72;0.80;;;16.00;99.90;;;15.35;100.00;100813.88;5302206;22;20245;-74
2022/09/12 00:26:48;;;;;;;2.05;1.08;;;16.00;99.90;;;15.20;100.00;100780.38;5274412;22;20006;-74
2022/09/12 00:28:50;;;;;;;2.25;0.73;;;16.00;99.90;;;15.27;100.00;100799.88;5274559;22;20029;-74
2022/09/12 00:30:51;;;;;;;2.15;1.10;;;15.90;99.90;;;15.27;100.00;100790.06;5301945;22;20101;-74
2022/09/12 00:32:53;;;;;;;2.20;0.93;;;15.90;99.90;;;15.21;100.00;100782.81;5274595;22;20025;-74
2022/09/12 00:34:54;;;;;;;3.25;1.65;;;15.90;99.90;;;15.23;100.00;100788.78;5247865;22;20010;-74
2022/09/12 00:36:55;;;;;;;2.63;0.77;;;16.00;99.90;;;15.23;100.00;100787.97;5248389;22;19999;-74
2022/09/12 00:38:56;;;;;;;3.55;0.60;;;15.90;99.90;;;15.37;100.00;100803.06;5303317;22;20338;-74
2022/09/12 00:40:57;;;;;;;3.17;0.88;;;15.90;99.90;;;15.37;100.00;100806.56;5303893;22;20002;-74
2022/09/12 00:42:58;;;;;;;3.85;0.80;;;15.90;99.90;;;15.32;100.00;100795.63;5303802;22;19997;-74
2022/09/12 00:44:59;;;;;;;5.38;1.05;;;16.00;99.90;;;15.30;100.00;100787.03;5249604;22;20010;-74
2022/09/12 00:47:12;;;;;;;1.77;0.93;;;16.00;99.90;;;15.39;100.00;100793.91;5303513;22;19998;-74
2022/09/12 00:49:21;;;;;;;2.45;0.90;;;15.90;99.90;;;15.26;100.00;100772.47;5303840;22;19998;-74
2022/09/12 00:51:23;;;;;;;2.55;1.10;;;15.90;99.90;;;15.29;100.00;100774.75;5278015;22;20003;-74
2022/09/12 00:53:24;;;;;;;4.38;0.90;;;15.90;99.90;;;15.34;100.00;100779.53;5249960;22;20082;-74
2022/09/12 00:55:44;;;;;;;3.03;0.77;;;16.00;99.90;;;15.30;100.00;100762.28;5276083;22;20063;-74
2022/09/12 00:58:01;;;;;;;2.90;1.13;;;16.00;99.90;;;15.39;100.00;100762.00;5252478;22;20147;-74
2022/09/12 01:00:13;;;;;;;3.75;0.90;;;16.00;99.90;;;15.26;100.00;100737.09;5276367;22;20101;-74
2022/09/12 01:02:15;;;;;;;2.80;1.27;;;16.00;99.90;;;15.29;100.00;100734.09;5275963;22;20002;-74
2022/09/12 01:04:20;;;;;;;4.75;1.10;;;16.10;99.90;;;15.54;100.00;100769.13;5249840;22;20003;-74
2022/09/12 01:06:28;;;;;;;2.63;1.48;;;16.10;99.90;;;15.37;100.00;100733.97;5275904;22;20031;-74
2022/09/12 01:08:31;;;;;;;3.47;1.30;;;16.10;99.90;;;15.44;100.00;100754.28;5276093;22;20009;-74
2022/09/12 01:10:36;;;;;;;2.13;0.80;;;16.10;99.90;;;15.42;100.00;100745.69;5249556;22;20095;-74
2022/09/12 01:12:41;;;;;;;3.00;1.05;;;16.10;99.90;;;15.45;100.00;100739.97;5275969;22;20473;-74
2022/09/12 01:14:42;;;;;;;3.17;1.10;;;16.10;99.90;;;15.47;100.00;100753.13;5249719;22;20017;-74
2022/09/12 01:16:44;;;;;;;1.83;1.10;;;16.10;99.90;;;15.39;100.00;100727.44;5249242;22;20014;-74
2022/09/12 01:19:03;;;;;;;2.53;1.10;;;16.10;99.90;;;15.49;100.00;100741.31;5275860;22;20080;-74
2022/09/12 01:21:37;;;;;;;2.50;1.20;;;16.10;99.90;;;15.48;100.00;100750.28;5277636;22;20504;-74
2022/09/12 01:24:16;;;;;;;5.10;0.90;;;16.10;99.90;;;15.38;100.00;100731.09;5275664;22;20059;-74
2022/09/12 01:27:10;;;;;;;2.05;0.80;;;16.10;99.90;;;15.38;100.00;100747.03;5303477;22;20028;-74
2022/09/12 01:29:59;;;;;;;2.90;0.98;;;16.00;99.90;;;15.34;100.00;100743.13;5253089;22;20438;-74
2022/09/12 01:32:27;;;;;;;3.47;1.08;;;16.00;99.90;;;15.24;100.00;100745.25;5303013;22;20067;-74
2022/09/12 01:35:15;;;;;;;1.45;0.90;;;15.90;99.90;;;15.25;100.00;100749.56;5275479;22;20018;-74
2022/09/12 01:38:07;;;;;;;2.30;1.00;;;15.90;99.90;;;15.07;100.00;100721.75;5228204;22;20022;-74
2022/09/12 01:40:21;;;;;;;2.60;0.70;;;15.80;99.90;;;15.12;100.00;100732.63;5254705;22;20057;-74
2022/09/12 01:42:53;;;;;;;3.83;1.00;;;15.80;99.90;;;15.14;100.00;100736.72;5251099;22;20015;-74
2022/09/12 01:45:34;;;;;;;1.90;0.90;;;15.70;99.90;;;15.12;100.00;100741.41;5249352;22;20003;-74
2022/09/12 01:47:55;;;;;;;2.67;1.00;;;15.70;99.90;;;15.10;100.00;100732.81;5277292;22;19998;-74
2022/09/12 01:50:18;;;;;;;3.67;1.25;;;15.70;99.90;;;14.88;100.00;100708.00;5224795;22;20074;-74
2022/09/12 01:52:42;;;;;;;1.55;0.90;;;15.70;99.90;;;14.91;100.00;100715.63;5223936;22;20014;-74
2022/09/12 01:55:09;;;;;;;1.95;1.10;;;15.60;99.90;;;14.91;100.00;100720.94;5276072;22;20012;-74
2022/09/12 01:57:27;;;;;;;1.95;1.17;;;15.60;99.90;;;14.98;100.00;100729.00;5225745;22;20011;-74
2022/09/12 01:59:40;;;;;;;1.88;0.88;;;15.60;99.90;;;14.86;100.00;100706.56;5251625;22;20033;-74
2022/09/12 02:01:59;;;;;;;1.98;0.80;;;15.60;99.90;;;14.96;100.00;100728.34;5249607;22;20002;-74
2022/09/12 02:04:32;;;;;;;2.63;0.77;;;15.50;99.90;;;14.74;100.00;100698.22;5250397;22;20021;-74
2022/09/12 02:07:06;;;;;;;2.83;1.10;;;15.50;99.90;;;14.85;100.00;100721.66;5250537;22;20462;-74
2022/09/12 02:09:20;;;;;;;2.50;0.98;;;15.50;99.90;;;14.68;100.00;100691.00;5253808;22;20008;-74
2022/09/12 02:11:21;;;;;;;1.77;0.73;;;15.40;99.90;;;14.65;100.00;100691.38;5248980;22;20002;-74
2022/09/12 02:13:31;;;;;;;4.35;1.15;;;15.40;99.90;;;14.63;100.00;100688.09;5276746;22;19998;-74
2022/09/12 02:15:41;;;;;;;8.10;1.85;;;15.40;99.90;;;14.71;100.00;100697.78;5248959;22;20446;-74
2022/09/12 02:17:44;;;;;;;2.25;1.08;;;15.40;99.90;;;14.59;100.00;100680.66;5249655;22;20342;-74
2022/09/12 02:19:58;;;;;;;2.97;0.85;;;15.40;99.90;;;14.60;100.00;100679.66;5276749;22;20032;-74
2022/09/12 02:22:03;;;;;;;2.03;0.95;;;15.30;99.90;;;14.58;100.00;100673.69;5248919;22;20049;-74
2022/09/12 02:24:09;;;;;;;3.35;1.20;;;15.30;99.90;;;14.54;100.00;100675.09;5276653;22;19998;-74
2022/09/12 02:26:35;;;;;;;3.45;1.02;;;15.30;99.90;;;14.56;100.00;100679.19;5248880;22;20566;-74
2022/09/12 02:28:42;;;;;;;2.33;1.13;;;15.30;99.90;;;14.49;100.00;100672.13;5231899;22;20002;-74
2022/09/12 02:31:31;;;;;;;2.33;0.98;;;15.30;99.90;;;14.61;100.00;100697.22;5248641;22;20027;-74
2022/09/12 02:34:02;;;;;;;4.53;1.10;;;15.20;99.90;;;14.60;100.00;100696.41;5146194;23;20024;-73
2022/09/12 02:36:46;;;;;;;2.05;1.00;;;15.20;99.90;;;14.53;100.00;100684.03;5121235;23;20058;-73
2022/09/12 02:38:48;;;;;;;2.53;1.08;;;15.20;99.90;;;14.39;100.00;100657.28;5218330;22;20063;-74
2022/09/12 02:40:49;;;;;;;2.95;0.90;;;15.20;99.90;;;14.41;100.00;100665.09;5248971;22;20034;-74
2022/09/12 02:42:50;;;;;;;2.80;1.25;;;15.10;99.90;;;14.41;100.00;100662.44;5276731;22;19998;-74
2022/09/12 02:44:54;;;;;;;2.58;1.20;;;15.10;99.90;;;14.35;100.00;100661.34;5222813;22;20072;-74
2022/09/12 02:47:03;;;;;;;3.17;0.90;;;15.10;99.90;;;14.37;100.00;100653.19;5248134;22;19999;-74
2022/09/12 02:49:04;;;;;;;3.85;1.73;;;15.10;99.90;;;14.35;100.00;100663.16;5249156;22;19999;-74
2022/09/12 02:51:05;;;;;;;2.40;1.20;;;15.10;99.90;;;14.42;100.00;100661.44;5248372;22;19999;-74
2022/09/12 02:53:08;;;;;;;3.10;1.13;;;15.00;99.90;;;14.36;100.00;100663.00;5275232;22;19999;-74
2022/09/12 02:55:10;;;;;;;3.20;1.20;;;15.00;99.90;;;14.30;100.00;100653.09;5222475;22;20003;-74
2022/09/12 02:57:20;;;;;;;2.05;0.90;;;15.10;99.90;;;14.38;100.00;100670.75;5276503;22;20121;-74
2022/09/12 02:59:23;;;;;;;4.32;1.30;;;15.00;99.90;;;14.24;100.00;100647.69;5248913;22;20022;-74
2022/09/12 03:01:44;;;;;;;2.83;1.15;;;15.00;99.90;;;14.37;100.00;100661.97;5248272;22;19998;-74
2022/09/12 03:04:24;;;;;;;2.15;1.02;;;15.00;99.90;;;14.32;100.00;100661.72;5276308;22;20071;-74
2022/09/12 03:06:52;;;;;;;3.08;1.10;;;15.00;99.90;;;14.30;100.00;100658.38;5276454;22;20008;-73
2022/09/12 03:09:33;;;;;;;4.97;1.27;;;14.90;99.90;;;14.22;100.00;100647.84;5252645;22;20003;-74
2022/09/12 03:12:07;;;;;;;2.33;1.20;;;14.90;99.90;;;14.27;100.00;100660.56;5276442;22;20147;-74
2022/09/12 03:14:46;;;;;;;10.65;1.65;;;14.90;99.90;;;14.17;100.00;100646.75;5276593;22;20016;-73
2022/09/12 03:17:13;;;;;;;11.90;1.60;;;14.80;99.90;;;14.09;100.00;100641.53;5250289;22;20082;-73
2022/09/12 03:19:52;;;;;;;2.40;1.40;;;14.80;99.90;;;13.98;100.00;100631.38;5222246;22;20474;-74
2022/09/12 03:22:40;;;;;;;2.78;0.95;;;14.80;99.90;;;14.03;100.00;100651.03;5225092;22;20057;-74
2022/09/12 03:25:21;;;;;;;2.25;1.17;;;14.70;99.90;;;13.86;100.00;100633.59;5247259;22;20101;-74
2022/09/12 03:27:39;;;;;;;3.80;1.67;;;14.70;99.90;;;13.84;100.00;100627.66;5252018;22;20454;-74
2022/09/12 03:29:43;;;;;;;6.40;1.90;;;14.70;99.90;;;13.96;100.00;100649.25;5251471;22;20524;-74
2022/09/12 03:31:56;;;;;;;4.65;1.45;;;14.60;99.90;;;13.95;100.00;100645.78;5248476;22;20060;-74
2022/09/12 03:33:59;;;;;;;2.72;1.20;;;14.60;99.90;;;13.80;100.00;100613.94;5248771;22;20071;-74
2022/09/12 03:36:00;;;;;;;7.65;1.40;;;14.60;99.90;;;13.93;100.00;100636.38;5223085;22;20007;-74
2022/09/12 03:38:01;;;;;;;2.92;1.05;;;14.50;99.90;;;13.81;100.00;100620.91;5248620;22;20064;-74
2022/09/12 03:40:05;;;;;;;2.58;1.08;;;14.60;99.90;;;13.81;100.00;100612.94;5275886;22;20063;-74
2022/09/12 03:42:06;;;;;;;3.38;1.20;;;14.60;99.90;;;13.93;100.00;100639.03;5276282;22;19998;-73
2022/09/12 03:44:07;;;;;;;5.53;1.80;;;14.60;99.90;;;13.86;100.00;100625.66;5222398;22;20004;-74
2022/09/12 03:46:08;;;;;;;3.10;1.60;;;14.60;99.90;;;13.89;100.00;100641.19;5248417;22;20048;-73
2022/09/12 03:48:09;;;;;;;3.85;1.17;;;14.50;99.90;;;13.75;100.00;100624.28;5248331;22;20006;-74
2022/09/12 03:50:10;;;;;;;3.90;1.63;;;14.50;99.90;;;13.73;100.00;100617.50;5248633;22;20022;-74
2022/09/12 03:52:11;;;;;;;3.22;1.48;;;14.60;99.90;;;13.80;100.00;100631.66;5275986;22;20041;-74
2022/09/12 03:54:12;;;;;;;6.15;1.52;;;14.60;99.90;;;13.74;100.00;100627.09;5275983;22;20070;-74
2022/09/12 03:56:13;;;;;;;3.88;1.10;;;14.60;99.90;;;13.86;100.00;100646.84;5248269;22;20007;-74
2022/09/12 03:58:14;;;;;;;3.60;1.35;;;14.50;99.90;;;13.77;100.00;100624.06;5248412;22;20054;-74
2022/09/12 04:00:15;;;;;;;3.47;1.70;;;14.50;99.90;;;13.80;100.00;100621.06;5248854;22;20007;-73
2022/09/12 04:02:16;;;;;;;3.53;1.70;;;14.50;99.90;;;13.74;100.00;100609.34;5248077;22;20046;-74
2022/09/12 04:04:17;;;;;;;6.07;1.77;;;14.50;99.90;;;13.79;100.00;100614.13;5248476;22;20038;-74
2022/09/12 04:06:21;;;;;;;3.95;1.38;;;14.50;99.90;;;13.93;100.00;100629.25;5248441;22;20007;-74
2022/09/12 04:08:22;;;;;;;4.93;1.50;;;14.60;99.90;;;13.88;100.00;100634.28;5275863;22;20395;-74
2022/09/12 04:10:22;;;;;;;4.25;1.35;;;14.50;99.90;;;13.90;100.00;100628.78;5275895;22;20002;-74
2022/09/12 04:12:23;;;;;;;5.28;1.50;;;14.50;99.90;;;13.86;100.00;100617.69;5276712;22;20002;-74
2022/09/12 04:14:24;;;;;;;2.78;1.33;;;14.50;99.90;;;13.87;100.00;100622.00;5277693;22;20499;-74
2022/09/12 04:16:25;;;;;;;8.55;1.70;;;14.50;99.90;;;13.72;100.00;100594.63;5277308;22;20002;-74
2022/09/12 04:18:27;;;;;;;3.40;1.55;;;14.50;99.90;;;13.79;100.00;100598.22;5277556;22;20495;-74
2022/09/12 04:20:28;;;;;;;4.72;1.55;;;14.50;99.90;;;13.76;100.00;100602.06;5277341;22;20096;-74
2022/09/12 04:22:30;;;;;;;2.63;1.40;;;14.50;99.90;;;13.71;100.00;100598.28;5277610;22;19999;-74
2022/09/12 04:24:31;;;;;;;2.53;1.42;;;14.50;99.90;;;13.64;100.00;100590.25;5277557;22;20009;-74
2022/09/12 04:26:32;;;;;;;3.92;1.70;;;14.50;99.90;;;13.83;100.00;100618.88;5224201;22;20004;-74
2022/09/12 04:28:35;;;;;;;7.05;1.73;;;14.50;99.90;;;13.83;100.00;100610.09;5249697;22;20010;-74
2022/09/12 04:30:36;;;;;;;2.50;1.60;;;14.40;99.90;;;13.70;100.00;100588.69;5277420;22;20014;-74
2022/09/12 04:32:37;;;;;;;5.63;1.30;;;14.50;99.90;;;13.77;100.00;100598.41;5277525;22;20007;-74
2022/09/12 04:34:38;;;;;;;2.80;1.60;;;14.50;99.90;;;13.68;100.00;100582.72;5249371;22;20019;-74
2022/09/12 04:36:39;;;;;;;4.43;1.30;;;14.50;99.90;;;13.77;100.00;100592.25;5223836;22;20033;-74
2022/09/12 04:38:40;;;;;;;1.98;1.20;;;14.50;99.90;;;13.70;100.00;100586.88;5249784;22;20081;-74
2022/09/12 04:40:41;;;;;;;3.63;1.73;;;14.50;99.90;;;13.68;100.00;100583.56;5223763;22;20478;-74
2022/09/12 04:42:42;;;;;;;4.22;1.40;;;14.40;99.90;;;13.68;100.00;100593.34;5250006;22;20014;-74
2022/09/12 04:44:43;;;;;;;3.60;1.63;;;14.40;99.90;;;13.63;100.00;100579.81;5251150;22;20006;-74
2022/09/12 04:46:46;;;;;;;2.75;1.38;;;14.40;99.90;;;13.60;100.00;100575.69;5250843;22;20369;-74
2022/09/12 04:48:48;;;;;;;3.47;1.27;;;14.40;99.90;;;13.68;100.00;100574.78;5223748;22;20014;-74
2022/09/12 04:50:49;;;;;;;4.28;1.48;;;14.40;99.90;;;13.74;100.00;100592.63;5251222;22;20096;-74
2022/09/12 04:52:51;;;;;;;2.45;1.25;;;14.40;99.90;;;13.76;100.00;100595.94;5251099;22;20059;-74
2022/09/12 04:54:52;;;;;;;1.77;1.13;;;14.40;99.90;;;13.65;100.00;100577.81;5251370;22;20006;-74
2022/09/12 04:56:54;;;;;;;5.57;1.52;;;14.40;99.90;;;13.62;100.00;100578.97;5251292;22;20030;-74
2022/09/12 04:59:00;;;;;;;3.20;1.30;;;14.40;99.90;;;13.61;100.00;100577.34;5251091;22;20007;-74
2022/09/12 05:01:19;;;;;;;2.70;1.15;;;14.40;99.90;;;13.56;100.00;100574.41;5249378;22;20034;-74
2022/09/12 05:03:20;;;;;;;2.60;1.30;;;14.40;99.90;;;13.63;100.00;100591.25;5249841;22;20005;-74
2022/09/12 05:05:21;;;;;;;4.43;1.35;;;14.40;99.90;;;13.74;100.00;100609.34;5249580;22;20088;-74
2022/09/12 05:07:22;;;;;;;2.00;1.15;;;14.30;99.90;;;13.65;100.00;100593.72;5251429;22;20003;-74
2022/09/12 05:09:23;;;;;;;2.95;1.30;;;14.40;99.90;;;13.55;100.00;100578.06;5249483;22;20435;-74
2022/09/12 05:11:33;;;;;;;1.92;1.00;;;14.40;99.90;;;13.58;100.00;100576.88;5250962;22;20450;-74
2022/09/12 05:13:34;;;;;;;2.20;1.52;;;14.40;99.90;;;13.72;100.00;100594.63;5223998;22;20094;-74
2022/09/12 05:15:35;;;;;;;3.10;0.98;;;14.40;99.90;;;13.60;100.00;100569.56;5250840;22;20002;-74
2022/09/12 05:17:36;;;;;;;4.10;1.50;;;14.30;99.90;;;13.60;100.00;100575.69;5249442;22;20406;-74
2022/09/12 05:19:38;;;;;;;4.13;1.67;;;14.30;99.90;;;13.54;100.00;100564.97;5249415;22;20010;-74
2022/09/12 05:21:39;;;;;;;1.42;1.23;;;14.40;99.90;;;13.55;100.00;100572.78;5222959;22;20010;-74
2022/09/12 05:23:41;;;;;;;5.90;2.13;;;14.40;99.90;;;13.59;100.00;100573.25;5249072;22;19998;-74
2022/09/12 05:25:52;;;;;;;2.53;1.30;;;14.30;99.90;;;13.57;100.00;100567.28;5250857;22;20002;-74
2022/09/12 05:27:53;;;;;;;4.35;1.25;;;14.40;99.90;;;13.59;100.00;100562.63;5249591;22;20501;-74
2022/09/12 05:29:54;;;;;;;2.97;1.58;;;14.30;99.90;;;13.68;100.00;100574.78;5249429;22;20010;-74
2022/09/12 05:31:55;;;;;;;3.10;1.30;;;14.30;99.90;;;13.56;100.00;100555.84;5249036;22;20029;-73
2022/09/12 05:33:56;;;;;;;3.22;1.08;;;14.30;99.90;;;13.62;100.00;100572.88;5261980;22;20010;-74
2022/09/12 05:35:57;;;;;;;3.55;1.52;;;14.40;99.90;;;13.61;100.00;100571.22;5249219;22;20007;-74
2022/09/12 05:37:58;;;;;;;4.30;1.52;;;14.30;99.90;;;13.65;100.00;100583.13;5249360;22;20074;-74
2022/09/12 05:40:00;;;;;;;2.17;1.30;;;14.30;99.90;;;13.53;100.00;100552.75;5276826;22;20006;-74
2022/09/12 05:42:01;;;;;;;4.15;1.52;;;14.40;99.90;;;13.64;100.00;100555.78;5249424;22;20156;-74
2022/09/12 05:44:11;;;;;;;4.18;1.85;;;14.40;99.90;;;13.82;100.00;100587.25;5249748;22;20032;-74
2022/09/12 05:46:15;;;;;;;2.60;1.70;;;14.40;99.90;;;13.79;100.00;100575.19;5249373;22;20006;-74
2022/09/12 05:48:16;;;;;;;2.17;1.02;;;14.50;99.90;;;13.79;100.00;100580.50;5249125;22;20052;-74
2022/09/12 05:50:17;;;;;;;2.78;1.00;;;14.50;99.90;;;13.69;100.00;100568.50;5277379;22;20006;-74
2022/09/12 05:52:19;;;;;;;2.05;1.05;;;14.50;99.90;;;13.69;100.00;100565.84;5249315;22;20006;-74
2022/09/12 05:54:20;;;;;;;2.67;1.30;;;14.50;99.90;;;13.67;100.00;100563.38;5249404;22;20010;-74
2022/09/12 05:56:24;;;;;;;1.98;1.10;;;14.50;99.90;;;13.74;100.00;100579.38;5248842;22;20007;-74
2022/09/12 05:58:25;;;;;;;3.53;1.25;;;14.40;99.90;;;13.68;100.00;100574.78;5248733;22;20608;-74
2022/09/12 06:00:26;;;;;;;2.60;1.23;;;14.50;99.90;;;13.74;100.00;100574.06;5249256;22;20044;-74
2022/09/12 06:02:27;;;;;;;2.88;1.27;;;14.50;99.90;;;13.86;100.00;100586.72;5276972;22;20006;-74
2022/09/12 06:04:28;;;;;;;2.35;1.20;;;14.60;99.90;;;13.83;100.00;100575.63;5249289;22;20364;-74
2022/09/12 06:06:31;;;;;;;2.17;1.27;;;14.60;99.90;;;14.00;100.00;100603.66;5276341;22;20005;-74
2022/09/12 06:08:33;;;;;;;1.73;0.93;;;14.60;99.90;;;13.87;100.00;100584.88;5276953;22;20002;-74
2022/09/12 06:10:35;;;;;;;3.58;1.08;;;14.60;99.90;;;14.00;100.00;100598.34;5223374;22;20041;-74
2022/09/12 06:12:36;;;;;;;4.22;1.10;;;14.60;99.90;;;14.03;100.00;100603.28;5249115;22;20006;-74
2022/09/12 06:14:37;;;;;;;1.90;1.00;;;14.70;99.90;;;13.92;100.00;100590.47;5276698;22;20059;-74
2022/09/12 06:16:39;;;;;;;3.25;0.98;;;14.70;99.90;;;14.00;100.00;100597.53;5276591;22;20373;-74
2022/09/12 06:18:41;;;;;;;3.33;1.42;;;14.70;99.90;;;13.91;100.00;100586.19;5223033;22;20007;-74
2022/09/12 06:20:42;;;;;;;3.90;1.38;;;14.70;99.90;;;13.96;100.00;100589.09;5249073;22;20007;-74
2022/09/12 06:22:42;;;;;;;1.77;1.02;;;14.70;99.90;;;14.02;100.00;100600.81;5276624;22;19998;-74
2022/09/12 06:24:43;;;;;;;2.90;1.20;;;14.80;99.90;;;14.15;100.00;100612.44;5276658;22;20006;-74
2022/09/12 06:26:48;;;;;;;2.30;1.00;;;14.80;99.90;;;14.05;100.00;100585.34;5276229;22;20009;-74
2022/09/12 06:28:49;;;;;;;;;;;14.80;99.90;;;14.15;100.00;100609.78;5277169;22;19998;-74
2022/09/12 06:30:50;;;;;;;3.25;1.08;;;14.80;99.90;;;14.07;100.00;100579.84;5248678;22;19931;-74
2022/09/12 06:32:51;;;;;;;4.00;1.05;;;14.90;99.90;;;14.09;100.00;100591.97;5249034;22;19999;-74
2022/09/12 06:34:52;;;;;;;2.30;1.20;;;14.90;99.90;;;14.09;100.00;100576.03;5248342;22;20014;-74
2022/09/12 06:36:53;;;;;;;2.95;1.15;;;14.90;99.90;;;14.12;100.00;100585.47;5250385;22;20472;-74
2022/09/12 06:39:16;;;;;;;3.03;1.08;;;15.00;99.90;;;14.14;100.00;100573.66;5251023;22;19999;-74
2022/09/12 06:41:17;;;;;;;1.95;1.35;;;15.00;99.90;;;14.34;100.00;100609.25;5250376;22;20003;-74
2022/09/12 06:43:18;;;;;;;2.15;1.00;;;15.00;99.90;;;14.33;100.00;100599.69;5248766;22;20002;-74
2022/09/12 06:45:20;;;;;;;2.33;1.35;;;15.10;99.90;;;14.36;100.00;100588.69;5222559;22;20004;-74
2022/09/12 06:47:21;;;;;;;2.83;1.30;;;15.10;99.90;;;14.37;100.00;100590.31;5250301;22;20003;-74
2022/09/12 06:49:21;;;;;;;1.70;1.20;;;15.20;99.90;;;14.54;100.00;100606.06;5250351;22;20446;-74
2022/09/12 06:51:23;;;;;;;2.55;1.20;;;15.30;99.90;;;14.50;100.00;100588.84;5249087;22;20001;-74
2022/09/12 06:53:26;;;;;;;3.42;1.40;;;15.30;99.90;;;14.55;100.00;100576.66;5248997;22;20006;-74
2022/09/12 06:55:27;;;;;;;3.73;1.30;;;15.40;99.90;;;14.63;100.00;100579.22;5248756;22;20443;-74
2022/09/12 06:57:30;;;;;;;2.38;1.27;;;15.40;99.90;;;14.85;100.00;100603.97;5250590;22;20103;-74
2022/09/12 06:59:31;;;;;;;4.05;1.70;;;15.50;99.90;;;14.76;100.00;100578.53;5249505;22;20007;-74
2022/09/12 07:01:32;;;;;;;5.25;1.75;;;15.50;99.90;;;14.95;100.00;100602.69;5249977;22;20010;-74
2022/09/12 07:03:34;;;;;;;5.25;1.52;;;15.60;99.90;;;15.05;100.00;100583.78;5250228;22;19999;-74
2022/09/12 07:05:36;;;;;;;1.90;1.10;;;15.70;99.90;;;15.02;100.00;100570.88;5248844;22;20003;-74
2022/09/12 07:07:37;;;;;;;3.35;1.20;;;15.80;99.90;;;15.06;100.00;100569.47;5223040;22;19999;-74
2022/09/12 07:09:38;;;;;;;3.25;1.27;;;15.90;99.90;;;15.10;100.00;100560.13;5248598;22;20007;-74
2022/09/12 07:11:40;;;;;;;3.85;1.20;;;15.90;99.90;;;15.16;100.00;100556.72;5250131;22;20435;-74
2022/09/12 07:13:44;;;;;;;1.55;0.98;;;15.90;99.90;;;15.39;100.00;100583.06;5248524;22;20002;-74
2022/09/12 07:15:45;;;;;;;2.63;1.25;;;16.00;99.90;;;15.30;100.00;100560.31;5248451;22;20006;-74
2022/09/12 07:17:46;;;;;;;2.25;1.02;;;16.10;99.90;;;15.39;100.00;100554.66;5250119;22;20320;-74
2022/09/12 07:19:47;;;;;;;3.88;0.90;;;16.20;99.90;;;15.53;100.00;100560.13;5249960;22;20015;-74
2022/09/12 07:21:48;;;;;;;2.28;1.00;;;16.20;99.90;;;15.51;100.00;100552.34;5248641;22;20006;-73
2022/09/12 07:23:50;;;;;;;2.40;0.90;;;16.30;99.90;;;15.56;100.00;100555.22;5248782;22;20029;-74
2022/09/12 07:25:56;;;;;;;5.38;0.90;;;16.30;99.90;;;15.60;100.00;100543.22;5250014;22;20006;-74
2022/09/12 07:27:57;;;;;;;2.10;1.27;;;16.40;99.90;;;15.80;100.00;100552.13;5248551;22;20028;-74
2022/09/12 07:29:59;;;;;;;3.10;1.00;;;16.50;99.90;;;15.95;100.00;100566.16;5250346;22;20003;-74
2022/09/12 07:32:01;;;;;;;2.03;1.27;;;16.60;99.90;;;15.89;100.00;100536.84;5249766;22;20430;-74
2022/09/12 07:34:05;;;;;;;2.17;1.00;;;16.70;99.90;;;15.97;100.00;100536.72;5248311;22;20406;-74
2022/09/12 07:36:13;;;;;;;3.28;1.00;;;16.80;99.90;;;16.15;100.00;100553.00;5248491;22;20013;-74
2022/09/12 07:38:15;;;;;;;3.35;1.20;;;16.90;99.90;;;16.20;100.00;100547.06;5223206;22;20007;-74
2022/09/12 07:40:16;;;;;;;3.72;1.23;;;16.90;99.90;;;16.30;100.00;100553.69;5248282;22;20078;-74
2022/09/12 07:42:17;;;;;;;4.38;1.20;;;17.00;99.90;;;16.30;100.00;100535.06;5250148;22;20002;-74
2022/09/12 07:44:18;;;;;;;2.90;1.10;;;17.10;99.90;;;16.41;100.00;100544.28;5222587;22;20355;-74
2022/09/12 07:46:21;;;;;;;4.35;1.00;;;17.20;99.90;;;16.54;100.00;100553.22;5247560;22;20056;-74
2022/09/12 07:48:22;;;;;;;2.40;1.20;;;17.30;99.90;;;16.69;100.00;100565.53;5249997;22;20007;-74
2022/09/12 07:50:23;;;;;;;7.57;1.60;;;17.30;99.90;;;16.74;100.00;100565.75;5248354;22;20010;-74
2022/09/12 07:52:24;;;;;;;2.42;1.30;;;17.40;99.90;;;16.65;100.00;100550.97;5249957;22;20045;-74
2022/09/12 07:54:25;;;;;;;2.17;0.95;;;17.50;99.90;;;16.82;100.00;100562.91;5249944;22;20002;-74
2022/09/12 07:56:27;;;;;;;4.90;1.23;;;17.50;99.90;;;16.76;100.00;100545.88;5250284;22;20007;-74
2022/09/12 07:58:29;;;;;;;3.30;1.10;;;17.60;99.90;;;16.84;100.00;100542.22;5248108;22;20153;-74
2022/09/12 08:00:34;;;;;;;2.45;0.90;;;17.60;99.90;;;16.97;100.00;100544.91;5249583;22;20002;-74
2022/09/12 08:02:35;;;;;;;4.60;1.35;;;17.70;99.90;;;17.01;100.00;100540.81;5249714;22;20430;-74
2022/09/12 08:04:36;;;;;;;2.92;1.00;;;17.80;99.90;;;17.15;100.00;100553.13;5249878;22;19998;-74
2022/09/12 08:06:37;;;;;;;3.42;1.30;;;17.90;99.90;;;17.24;100.00;100551.09;5249883;22;19999;-74
2022/09/12 08:08:39;;;;;;;1.88;1.13;;;18.00;99.90;;;17.29;100.00;100544.16;5249815;22;20053;-74
2022/09/12 08:10:40;;;;;;;3.05;1.48;;;18.10;99.90;;;17.44;100.00;100567.94;5248386;22;20009;-74
2022/09/12 08:12:41;;;;;;;2.50;1.35;;;18.10;99.90;;;17.36;100.00;100542.28;5248977;22;20376;-74
2022/09/12 08:14:42;;;;;;;4.35;1.90;;;18.20;99.90;;;17.61;100.00;100570.03;5249883;22;20034;-74
2022/09/12 08:16:43;;;;;;;4.75;1.10;;;18.30;99.90;;;17.54;100.00;100542.53;5249453;22;20006;-74
2022/09/12 08:18:44;;;;;;;3.67;1.48;;;18.30;99.90;;;17.68;100.00;100548.69;5249770;22;20381;-74
2022/09/12 08:20:45;;;;;;;5.45;1.42;;;18.40;99.90;;;17.77;100.00;100552.75;5248060;22;20014;-74
2022/09/12 08:22:46;;;;;;;2.00;1.13;;;18.50;99.90;;;17.80;100.00;100543.53;5222538;22;20007;-74
2022/09/12 08:24:48;;;;;;;3.05;1.50;;;18.60;99.90;;;17.93;100.00;100541.66;5249718;22;20002;-74
2022/09/12 08:26:49;;;;;;;3.05;1.10;;;18.70;99.90;;;18.02;100.00;100535.06;5249721;22;20052;-74
2022/09/12 08:28:52;;;;;;;3.78;1.30;;;18.80;99.90;;;18.18;100.00;100545.31;5249723;22;20007;-74
2022/09/12 08:30:54;;;;;;;4.97;1.08;;;18.80;99.90;;;18.10;100.00;100534.00;5249123;22;20086;-74
2022/09/12 08:32:55;;;;;;;5.32;1.80;;;18.90;99.90;;;18.12;100.00;100530.13;5248317;22;20003;-74
2022/09/12 08:34:57;;;;;;;2.03;1.25;;;18.90;99.90;;;18.23;100.00;100528.63;5273217;22;20044;-74
2022/09/12 08:36:58;;;;;;;3.20;1.10;;;19.00;99.90;;;18.31;100.00;100530.25;5248202;22;20014;-74
2022/09/12 08:39:03;;;;;;;2.33;0.98;;;19.10;99.90;;;18.33;100.00;100521.00;5276323;22;20006;-74
2022/09/12 08:41:17;;;;;;;2.55;1.27;;;19.10;99.90;;;18.53;99.70;100540.47;5275788;22;20006;-74
2022/09/12 08:43:44;;;;;;;;;;;19.20;99.90;;;18.52;99.64;100528.13;5248579;22;20026;-74
2022/09/12 08:46:11;;;;;;;2.95;0.70;;;19.30;99.90;;;18.68;99.19;100540.19;5223598;22;19903;-74